createdAt,value
2022-11-29T00:01:19.879Z,101365.81
2022-11-29T00:04:01.403Z,101367.53
2022-11-29T00:07:08.172Z,101370.09
2022-11-29T00:10:08.122Z,101366.63
2022-11-29T00:16:13.045Z,101363.13
2022-11-29T00:19:08.025Z,101367.50
2022-11-29T00:21:37.047Z,101371.84
2022-11-29T00:24:10.347Z,101378.78
2022-11-29T00:27:02.587Z,101377.88
2022-11-29T00:29:31.051Z,101376.16
2022-11-29T00:31:57.673Z,101373.56
2022-11-29T00:34:24.493Z,101369.22
2022-11-29T00:37:13.367Z,101369.19
2022-11-29T00:39:41.053Z,101369.22
2022-11-29T00:42:08.055Z,101374.38
2022-11-29T00:47:44.218Z,101364.84
2022-11-29T00:50:31.807Z,101370.84
2022-11-29T00:52:58.310Z,101366.50
2022-11-29T00:55:25.066Z,101368.28
2022-11-29T00:57:51.866Z,101367.44
2022-11-29T01:00:18.669Z,101360.47
2022-11-29T01:03:20.047Z,101367.41
2022-11-29T01:05:50.161Z,101365.66
2022-11-29T01:08:17.464Z,101374.31
2022-11-29T01:11:06.835Z,101368.25
2022-11-29T01:14:03.243Z,101373.44
2022-11-29T01:16:31.879Z,101373.44
2022-11-29T01:19:11.188Z,101373.44
2022-11-29T01:21:38.059Z,101368.22
2022-11-29T01:26:52.578Z,101375.09
2022-11-29T01:29:19.353Z,101377.66
2022-11-29T01:31:46.002Z,101377.66
2022-11-29T01:34:12.626Z,101379.38
2022-11-29T01:36:57.790Z,101382.88
2022-11-29T01:39:24.721Z,101382.00
2022-11-29T01:42:19.596Z,101381.16
2022-11-29T01:45:29.223Z,101375.88
2022-11-29T01:47:59.294Z,101376.69
2022-11-29T01:50:26.038Z,101379.25
2022-11-29T01:53:00.866Z,101373.19
2022-11-29T01:55:28.264Z,101378.44
2022-11-29T01:58:00.433Z,101369.78
2022-11-29T02:00:28.728Z,101381.06
2022-11-29T02:03:08.368Z,101370.66
2022-11-29T02:05:36.599Z,101375.78
2022-11-29T02:08:03.658Z,101377.56
2022-11-29T02:11:22.006Z,101383.59
2022-11-29T02:14:07.356Z,101374.94
2022-11-29T02:17:21.486Z,101378.38
2022-11-29T02:20:28.690Z,101374.03
2022-11-29T02:23:31.170Z,101384.41
2022-11-29T02:26:20.237Z,101383.53
2022-11-29T02:29:08.281Z,101386.97
2022-11-29T02:32:04.366Z,101389.56
2022-11-29T02:35:06.149Z,101392.16
2022-11-29T02:37:57.380Z,101393.84
2022-11-29T02:41:14.333Z,101390.38
2022-11-29T02:44:19.653Z,101394.69
2022-11-29T02:47:13.716Z,101397.28
2022-11-29T02:49:52.159Z,101391.22
2022-11-29T02:52:27.829Z,101395.53
2022-11-29T02:55:36.062Z,101397.31
2022-11-29T02:58:13.883Z,101396.38
2022-11-29T03:04:08.180Z,101401.53
2022-11-29T03:07:55.245Z,101408.50
2022-11-29T03:10:51.375Z,101417.09
2022-11-29T03:13:47.794Z,101417.94
2022-11-29T03:16:23.672Z,101424.88
2022-11-29T03:19:24.152Z,101426.63
2022-11-29T03:22:14.980Z,101429.22
2022-11-29T03:25:46.317Z,101424.00
2022-11-29T03:29:19.460Z,101430.88
2022-11-29T03:32:15.642Z,101440.34
2022-11-29T03:38:59.499Z,101435.16
2022-11-29T03:42:06.374Z,101432.56
2022-11-29T03:45:25.753Z,101435.16
2022-11-29T03:48:18.699Z,101435.13
2022-11-29T03:51:19.423Z,101439.44
2022-11-29T03:54:15.491Z,101434.22
2022-11-29T03:57:17.545Z,101440.25
2022-11-29T03:59:53.586Z,101443.72
2022-11-29T04:02:33.320Z,101447.13
2022-11-29T04:05:28.343Z,101448.00
2022-11-29T04:08:13.269Z,101453.19
2022-11-29T04:11:18.095Z,101454.09
2022-11-29T04:14:13.933Z,101454.94
2022-11-29T04:17:31.914Z,101454.06
2022-11-29T04:20:41.143Z,101457.47
2022-11-29T04:23:59.930Z,101464.34
2022-11-29T04:29:54.800Z,101460.84
2022-11-29T04:33:02.870Z,101473.78
2022-11-29T04:35:46.378Z,101478.06
2022-11-29T04:39:12.356Z,101479.81
2022-11-29T04:41:41.461Z,101486.75
2022-11-29T04:44:25.884Z,101485.84
2022-11-29T04:47:02.977Z,101481.47
2022-11-29T04:50:12.861Z,101477.19
2022-11-29T04:53:25.872Z,101491.00
2022-11-29T04:56:18.587Z,101494.41
2022-11-29T04:59:23.454Z,101501.34
2022-11-29T05:02:35.978Z,101507.47
2022-11-29T05:08:05.735Z,101503.97
2022-11-29T05:11:27.192Z,101502.22
2022-11-29T05:14:24.977Z,101513.47
2022-11-29T05:17:24.808Z,101517.75
2022-11-29T05:20:10.675Z,101512.53
2022-11-29T05:23:16.486Z,101516.00
2022-11-29T05:26:08.815Z,101514.25
2022-11-29T05:29:02.772Z,101507.28
2022-11-29T05:31:45.150Z,101518.53
2022-11-29T05:34:34.548Z,101521.97
2022-11-29T05:37:39.915Z,101527.19
2022-11-29T05:40:25.247Z,101536.72
2022-11-29T05:43:18.881Z,101530.66
2022-11-29T05:46:10.037Z,101539.25
2022-11-29T05:49:02.022Z,101546.22
2022-11-29T05:51:53.099Z,101539.25
2022-11-29T05:55:12.686Z,101548.75
2022-11-29T05:58:17.509Z,101552.22
2022-11-29T06:01:06.161Z,101549.69
2022-11-29T06:03:38.883Z,101554.88
2022-11-29T06:06:19.451Z,101560.06
2022-11-29T06:09:31.059Z,101560.06
2022-11-29T06:12:05.436Z,101563.50
2022-11-29T06:15:14.155Z,101560.91
2022-11-29T06:18:10.408Z,101571.28
2022-11-29T06:25:09.167Z,101573.03
2022-11-29T06:28:08.805Z,101571.28
2022-11-29T06:31:01.032Z,101575.63
2022-11-29T06:33:48.929Z,101579.03
2022-11-29T06:36:21.068Z,101581.66
2022-11-29T06:39:12.956Z,101588.56
2022-11-29T06:41:39.558Z,101591.16
2022-11-29T06:44:35.836Z,101598.03
2022-11-29T06:53:26.069Z,101598.78
2022-11-29T06:56:01.315Z,101608.41
2022-11-29T07:01:53.248Z,101614.50
2022-11-29T07:05:13.352Z,101614.50
2022-11-29T07:07:41.829Z,101612.75
2022-11-29T07:10:37.362Z,101616.13
2022-11-29T07:13:27.462Z,101612.69
2022-11-29T07:16:06.863Z,101628.28
2022-11-29T07:26:10.577Z,101636.03
2022-11-29T07:29:15.035Z,101636.03
2022-11-29T08:16:37.519Z,101660.50
2022-11-29T08:19:11.017Z,101657.06
2022-11-29T08:27:44.235Z,101660.59
2022-11-29T08:30:18.106Z,101660.69
2022-11-29T09:37:25.440Z,101702.19
2022-11-29T09:41:09.594Z,101716.13
2022-11-29T10:16:26.093Z,101730.84
2022-11-29T10:33:42.656Z,101740.44
2022-11-29T10:40:23.303Z,101739.66
2022-11-29T10:43:13.474Z,101739.72
2022-11-29T10:46:41.336Z,101746.69
2022-11-29T10:49:35.077Z,101744.06
2022-11-29T11:09:52.439Z,101735.59
2022-11-29T11:13:04.984Z,101733.81
2022-11-29T11:15:49.081Z,101738.19
2022-11-29T11:25:26.647Z,101734.78
2022-11-29T11:28:21.627Z,101733.88
2022-11-29T11:31:17.047Z,101733.88
2022-11-29T11:33:59.246Z,101738.19
2022-11-29T11:37:25.721Z,101742.59
2022-11-29T11:40:29.301Z,101742.63
2022-11-29T11:43:19.922Z,101739.19
2022-11-29T11:46:03.466Z,101734.78
2022-11-29T11:48:43.349Z,101751.22
2022-11-29T11:52:00.866Z,101746.94
2022-11-29T11:54:33.648Z,101745.25
2022-11-29T12:01:38.111Z,101747.06
2022-11-29T12:04:48.100Z,101755.78
2022-11-29T12:07:59.735Z,101747.91
2022-11-29T12:10:49.825Z,101755.78
2022-11-29T12:18:39.671Z,101752.31
2022-11-29T14:01:05.461Z,101803.59
2022-11-29T16:14:51.575Z,101880.28
2022-11-29T17:05:32.815Z,101916.59
2022-11-29T17:44:14.728Z,101954.50
2022-11-29T18:12:04.228Z,101970.66
2022-11-29T18:25:36.837Z,101980.25
2022-11-29T18:28:34.246Z,101981.09
2022-11-29T18:31:57.428Z,101995.69
2022-11-29T18:51:40.184Z,102004.38
2022-11-29T18:58:35.000Z,101999.09
2022-11-29T19:01:57.737Z,102000.78
2022-11-29T19:29:12.254Z,102004.13
2022-11-29T19:32:08.133Z,102005.03
2022-11-29T19:39:33.190Z,102011.19
2022-11-29T19:45:53.102Z,102005.88
2022-11-29T19:53:35.187Z,102022.44
2022-11-29T20:01:12.753Z,102023.28
2022-11-29T20:26:17.014Z,102030.94
2022-11-29T20:59:51.579Z,102042.16
2022-11-29T21:16:32.704Z,102038.38
2022-11-29T21:37:38.271Z,102049.00
2022-11-29T21:44:06.809Z,102056.78
2022-11-29T21:47:27.001Z,102059.38
2022-11-29T21:49:58.744Z,102059.38
2022-11-29T21:52:53.413Z,102053.25
2022-11-29T21:55:51.576Z,102053.34
2022-11-29T22:01:45.298Z,102055.91
2022-11-29T22:04:25.467Z,102046.22
2022-11-29T22:07:37.071Z,102058.53
2022-11-29T22:10:36.415Z,102061.13
2022-11-29T22:13:16.950Z,102055.78
2022-11-29T22:15:47.089Z,102061.91
2022-11-29T22:22:02.409Z,102081.00
2022-11-29T22:24:39.502Z,102071.38
2022-11-29T22:27:10.981Z,102081.78
2022-11-29T22:29:48.957Z,102090.59
2022-11-29T22:32:22.590Z,102075.03
2022-11-29T22:34:49.636Z,102083.72
2022-11-29T22:37:22.315Z,102081.19
2022-11-29T22:40:07.212Z,102079.41
2022-11-29T22:42:34.286Z,102076.78
2022-11-29T22:49:00.889Z,102073.19
2022-11-29T22:51:32.788Z,102076.59
2022-11-29T22:54:09.547Z,102084.53
2022-11-29T22:56:53.827Z,102087.84
2022-11-29T22:59:20.907Z,102085.31
2022-11-29T23:01:56.842Z,102091.41
2022-11-29T23:04:51.314Z,102099.16
2022-11-29T23:07:27.588Z,102090.41
2022-11-29T23:10:02.531Z,102086.84
2022-11-29T23:12:29.790Z,102094.72
2022-11-29T23:14:59.588Z,102101.78
2022-11-29T23:17:27.169Z,102100.09
2022-11-29T23:19:53.788Z,102098.34
2022-11-29T23:23:31.976Z,102096.59
2022-11-29T23:29:41.828Z,102078.25
2022-11-29T23:32:12.400Z,102099.22
2022-11-29T23:34:39.026Z,102082.66
2022-11-29T23:37:46.330Z,102093.16
2022-11-29T23:40:13.971Z,102081.75
2022-11-29T23:42:45.098Z,102087.13
2022-11-29T23:45:58.888Z,102093.22
2022-11-29T23:52:21.067Z,102090.56
2022-11-29T23:54:48.103Z,102083.50
2022-11-29T23:57:40.726Z,102097.44
